createdAt,value
2023-04-18T00:01:42.622Z,5.43
2023-04-18T00:04:12.352Z,6.90
2023-04-18T00:06:42.097Z,5.97
2023-04-18T00:09:11.852Z,6.35
2023-04-18T00:11:41.428Z,6.28
2023-04-18T00:14:11.153Z,6.55
2023-04-18T00:16:41.047Z,7.20
2023-04-18T00:19:10.642Z,6.72
2023-04-18T00:21:45.180Z,6.63
2023-04-18T00:24:14.936Z,7.28
2023-04-18T00:26:44.379Z,7.63
2023-04-18T00:29:13.796Z,6.32
2023-04-18T00:31:43.198Z,7.05
2023-04-18T00:34:12.778Z,6.85
2023-04-18T00:36:42.455Z,7.47
2023-04-18T00:39:11.852Z,7.90
2023-04-18T00:41:41.291Z,7.22
2023-04-18T00:44:10.654Z,7.60
2023-04-18T00:46:40.082Z,7.75
2023-04-18T00:49:09.925Z,7.30
2023-04-18T00:51:39.423Z,7.03
2023-04-18T00:54:11.670Z,7.70
2023-04-18T00:56:41.749Z,7.13
2023-04-18T00:59:12.163Z,7.72
2023-04-18T01:01:43.799Z,7.40
2023-04-18T01:04:14.794Z,7.13
2023-04-18T01:06:45.741Z,7.53
2023-04-18T01:09:16.205Z,6.82
2023-04-18T01:11:47.455Z,7.35
2023-04-18T01:14:19.022Z,7.22
2023-04-18T01:16:49.120Z,7.25
2023-04-18T01:19:19.604Z,8.20
2023-04-18T01:21:49.076Z,7.38
2023-04-18T01:24:19.740Z,8.48
2023-04-18T01:26:50.738Z,8.18
2023-04-18T01:29:20.166Z,7.38
2023-04-18T01:31:49.712Z,7.82
2023-04-18T01:34:20.155Z,6.85
2023-04-18T01:36:49.584Z,8.05
2023-04-18T01:39:18.991Z,7.78
2023-04-18T01:41:48.500Z,7.90
2023-04-18T01:44:19.474Z,7.88
2023-04-18T01:46:48.889Z,7.13
2023-04-18T01:49:18.641Z,8.00
2023-04-18T01:51:48.076Z,7.47
2023-04-18T01:54:17.465Z,7.88
2023-04-18T01:56:46.842Z,7.30
2023-04-18T01:59:16.284Z,8.25
2023-04-18T02:01:47.193Z,7.78
2023-04-18T02:04:16.779Z,7.53
2023-04-18T02:06:48.888Z,8.25
2023-04-18T02:09:18.290Z,6.97
2023-04-18T02:11:47.700Z,8.52
2023-04-18T02:14:17.103Z,8.35
2023-04-18T02:16:47.268Z,7.50
2023-04-18T02:19:16.722Z,7.50
2023-04-18T02:21:46.167Z,8.50
2023-04-18T02:24:17.245Z,8.52
2023-04-18T02:26:46.988Z,7.85
2023-04-18T02:29:16.450Z,8.45
2023-04-18T02:31:45.941Z,7.55
2023-04-18T02:34:17.698Z,8.70
2023-04-18T02:36:47.150Z,8.02
2023-04-18T02:39:16.722Z,8.80
2023-04-18T02:41:46.105Z,8.10
2023-04-18T02:44:15.669Z,7.80
2023-04-18T02:46:46.763Z,7.88
2023-04-18T02:49:16.188Z,9.05
2023-04-18T02:51:47.414Z,8.02
2023-04-18T02:54:18.014Z,8.18
2023-04-18T02:56:57.166Z,8.95
2023-04-18T02:59:53.902Z,8.90
2023-04-18T03:02:46.530Z,8.38
2023-04-18T03:05:30.344Z,7.53
2023-04-18T03:08:03.255Z,8.43
2023-04-18T03:10:33.409Z,9.07
2023-04-18T03:13:03.143Z,8.15
2023-04-18T03:15:33.412Z,7.75
2023-04-18T03:18:02.922Z,8.80
2023-04-18T03:20:37.679Z,8.40
2023-04-18T03:23:09.380Z,7.60
2023-04-18T03:25:38.858Z,8.73
2023-04-18T03:28:08.266Z,9.10
2023-04-18T03:30:38.017Z,8.48
2023-04-18T03:33:08.934Z,9.18
2023-04-18T03:35:38.531Z,9.27
2023-04-18T03:38:08.159Z,8.15
2023-04-18T03:40:42.329Z,8.00
2023-04-18T03:43:19.093Z,8.40
2023-04-18T03:45:49.051Z,7.18
2023-04-18T03:50:50.252Z,7.97
2023-04-18T03:53:19.723Z,7.00
2023-04-18T03:55:49.290Z,8.65
2023-04-18T03:58:23.881Z,8.02
2023-04-18T04:00:54.735Z,8.30
2023-04-18T04:03:24.240Z,8.35
2023-04-18T04:05:53.978Z,7.45
2023-04-18T04:08:25.914Z,7.38
2023-04-18T04:10:57.229Z,7.70
2023-04-18T04:13:27.376Z,7.38
2023-04-18T04:15:57.323Z,7.82
2023-04-18T04:18:31.266Z,7.80
2023-04-18T04:21:03.192Z,7.55
2023-04-18T04:23:48.219Z,7.63
2023-04-18T04:26:28.736Z,7.63
2023-04-18T04:29:05.207Z,7.35
2023-04-18T04:31:36.800Z,7.07
2023-04-18T04:34:06.437Z,7.18
2023-04-18T04:36:36.213Z,8.00
2023-04-18T04:42:07.596Z,6.85
2023-04-18T04:44:46.229Z,6.70
2023-04-18T04:47:15.996Z,7.75
2023-04-18T04:49:47.021Z,7.28
2023-04-18T04:52:19.443Z,7.93
2023-04-18T04:54:48.993Z,8.15
2023-04-18T04:57:21.071Z,7.25
2023-04-18T04:59:50.787Z,7.30
2023-04-18T05:02:23.425Z,8.73
2023-04-18T05:04:53.138Z,7.45
2023-04-18T05:07:22.600Z,7.78
2023-04-18T05:09:53.423Z,7.72
2023-04-18T05:12:22.836Z,7.97
2023-04-18T05:14:54.987Z,8.27
2023-04-18T05:17:24.415Z,8.13
2023-04-18T05:19:53.874Z,8.10
2023-04-18T05:22:23.246Z,7.60
2023-04-18T05:24:52.674Z,8.20
2023-04-18T05:27:22.125Z,8.13
2023-04-18T05:29:51.592Z,7.70
2023-04-18T05:32:21.405Z,8.15
2023-04-18T05:34:51.475Z,9.00
2023-04-18T05:37:22.384Z,7.85
2023-04-18T05:39:51.884Z,8.23
2023-04-18T05:42:22.023Z,8.30
2023-04-18T05:44:51.492Z,7.63
2023-04-18T05:47:21.313Z,7.18
2023-04-18T05:49:50.851Z,8.15
2023-04-18T05:52:20.344Z,8.00
2023-04-18T05:54:49.708Z,8.48
2023-04-18T05:57:19.148Z,8.77
2023-04-18T05:59:48.571Z,8.50
2023-04-18T06:02:18.130Z,8.10
2023-04-18T06:04:48.855Z,8.68
2023-04-18T06:07:18.455Z,8.27
2023-04-18T06:09:48.856Z,7.70
2023-04-18T06:12:18.241Z,7.40
2023-04-18T06:14:47.710Z,7.75
2023-04-18T06:17:17.149Z,6.88
2023-04-18T06:19:46.578Z,7.75
2023-04-18T06:22:16.034Z,7.97
2023-04-18T06:24:45.517Z,7.07
2023-04-18T06:27:27.861Z,7.88
2023-04-18T06:30:00.433Z,7.97
2023-04-18T06:32:29.865Z,7.55
2023-04-18T06:34:59.488Z,7.57
2023-04-18T06:37:28.951Z,7.70
2023-04-18T06:39:58.811Z,7.47
2023-04-18T06:42:28.166Z,7.45
2023-04-18T06:44:57.571Z,7.75
2023-04-18T06:47:27.069Z,7.75
2023-04-18T06:49:56.683Z,7.57
2023-04-18T06:52:26.129Z,8.13
2023-04-18T06:54:55.570Z,7.40
2023-04-18T06:57:24.962Z,7.95
2023-04-18T06:59:54.390Z,7.03
2023-04-18T07:02:24.059Z,7.15
2023-04-18T07:04:53.538Z,7.15
2023-04-18T07:07:22.923Z,7.32
2023-04-18T07:09:53.748Z,7.25
2023-04-18T07:12:23.566Z,7.47
2023-04-18T07:14:53.474Z,7.57
2023-04-18T07:17:22.955Z,6.72
2023-04-18T07:19:52.689Z,7.68
2023-04-18T07:22:22.126Z,7.18
2023-04-18T07:24:51.520Z,6.78
2023-04-18T07:27:21.264Z,6.05
2023-04-18T07:29:50.702Z,6.13
2023-04-18T07:32:20.192Z,6.63
2023-04-18T07:34:49.641Z,5.35
2023-04-18T07:37:21.454Z,5.72
2023-04-18T07:39:51.573Z,6.10
2023-04-18T07:42:20.997Z,5.15
2023-04-18T07:44:50.614Z,5.22
2023-04-18T07:47:22.456Z,6.10
2023-04-18T07:49:52.046Z,6.10
2023-04-18T07:52:21.657Z,5.68
2023-04-18T07:54:51.339Z,6.15
2023-04-18T07:57:20.920Z,5.20
2023-04-18T07:59:53.873Z,5.82
2023-04-18T08:02:23.783Z,5.68
2023-04-18T08:04:53.666Z,5.85
2023-04-18T08:07:23.273Z,5.93
2023-04-18T08:09:52.740Z,5.38
2023-04-18T08:12:22.220Z,5.22
2023-04-18T08:14:51.621Z,5.57
2023-04-18T08:17:21.056Z,5.57
2023-04-18T08:19:50.585Z,5.80
2023-04-18T08:22:20.016Z,5.85
2023-04-18T08:25:03.262Z,5.15
2023-04-18T08:27:34.261Z,6.63
2023-04-18T08:30:04.894Z,5.00
2023-04-18T08:32:34.834Z,5.22
2023-04-18T08:35:04.501Z,5.38
2023-04-18T08:37:40.644Z,5.43
2023-04-18T08:40:10.514Z,5.30
2023-04-18T08:42:40.027Z,5.82
2023-04-18T08:45:09.725Z,4.82
2023-04-18T08:47:39.301Z,5.50
2023-04-18T08:50:09.450Z,5.07
2023-04-18T08:52:39.551Z,4.80
2023-04-18T08:55:09.640Z,5.00
2023-04-18T08:57:39.961Z,4.70
2023-04-18T09:00:11.797Z,4.85
2023-04-18T09:02:43.078Z,4.57
2023-04-18T09:05:16.347Z,5.33
2023-04-18T09:07:46.099Z,5.35
2023-04-18T09:10:15.914Z,5.25
2023-04-18T09:12:50.607Z,5.47
2023-04-18T09:15:23.415Z,5.65
2023-04-18T09:17:54.298Z,4.93
2023-04-18T09:20:34.980Z,5.50
2023-04-18T09:23:05.606Z,5.18
2023-04-18T09:25:46.853Z,4.80
2023-04-18T09:28:29.294Z,4.85
2023-04-18T09:30:59.875Z,5.40
2023-04-18T09:33:32.750Z,5.00
2023-04-18T09:36:20.972Z,4.82
2023-04-18T09:38:56.690Z,4.97
2023-04-18T09:41:27.758Z,4.78
2023-04-18T09:44:14.996Z,5.90
2023-04-18T09:46:47.605Z,5.35
2023-04-18T09:49:17.819Z,5.00
2023-04-18T09:51:47.727Z,4.65
2023-04-18T09:54:20.858Z,4.70
2023-04-18T09:56:54.248Z,5.18
2023-04-18T09:59:31.744Z,4.68
2023-04-18T10:02:02.430Z,5.13
2023-04-18T10:04:32.852Z,5.05
2023-04-18T10:07:02.687Z,4.82
2023-04-18T10:09:34.052Z,4.38
2023-04-18T10:12:04.198Z,4.35
2023-04-18T10:14:35.792Z,4.80
2023-04-18T10:17:05.251Z,5.03
2023-04-18T10:19:34.740Z,4.72
2023-04-18T10:22:04.709Z,4.90
2023-04-18T10:24:49.959Z,4.70
2023-04-18T10:27:20.092Z,5.05
2023-04-18T10:29:56.768Z,4.35
2023-04-18T10:32:26.424Z,3.67
2023-04-18T10:34:56.430Z,4.60
2023-04-18T10:37:25.824Z,4.40
2023-04-18T10:39:55.259Z,5.20
2023-04-18T10:42:44.861Z,4.47
2023-04-18T10:45:24.108Z,5.10
2023-04-18T10:47:53.654Z,5.63
2023-04-18T10:50:23.486Z,4.32
2023-04-18T10:52:53.003Z,5.45
2023-04-18T10:55:31.647Z,4.72
2023-04-18T10:58:01.550Z,4.75
2023-04-18T11:00:31.827Z,4.80
2023-04-18T11:03:01.389Z,5.18
2023-04-18T11:05:31.259Z,5.60
2023-04-18T11:08:00.632Z,5.20
2023-04-18T11:10:30.297Z,5.45
2023-04-18T11:13:04.795Z,5.20
2023-04-18T11:15:34.325Z,6.00
2023-04-18T11:18:07.738Z,5.30
2023-04-18T11:20:49.828Z,5.80
2023-04-18T11:23:25.206Z,5.97
2023-04-18T11:25:56.429Z,5.78
2023-04-18T11:28:26.692Z,5.72
2023-04-18T11:31:00.034Z,6.28
2023-04-18T11:33:31.438Z,5.72
2023-04-18T11:36:01.884Z,5.90
2023-04-18T11:38:32.881Z,6.55
2023-04-18T11:41:04.947Z,6.70
2023-04-18T11:43:34.353Z,6.15
2023-04-18T11:46:03.850Z,6.40
2023-04-18T11:48:37.226Z,6.35
2023-04-18T11:51:07.708Z,6.15
2023-04-18T11:53:37.954Z,6.40
2023-04-18T11:56:07.813Z,6.70
2023-04-18T11:58:37.417Z,6.95
2023-04-18T12:01:19.963Z,6.70
2023-04-18T12:06:18.909Z,6.38
2023-04-18T12:08:48.427Z,6.65
2023-04-18T12:11:22.894Z,6.85
2023-04-18T12:13:52.299Z,7.32
2023-04-18T12:16:22.010Z,7.07
2023-04-18T12:18:51.491Z,6.25
2023-04-18T12:21:21.422Z,6.75
2023-04-18T12:23:57.664Z,6.78
2023-04-18T12:26:27.638Z,7.07
2023-04-18T12:28:58.548Z,7.95
2023-04-18T12:31:28.978Z,7.20
2023-04-18T12:34:00.272Z,6.63
2023-04-18T12:36:29.753Z,8.02
2023-04-18T12:38:59.134Z,8.80
2023-04-18T12:41:28.522Z,7.55
2023-04-18T12:43:57.913Z,8.30
2023-04-18T12:46:27.401Z,8.77
2023-04-18T12:48:57.307Z,8.32
2023-04-18T12:51:27.988Z,9.15
2023-04-18T12:53:57.492Z,8.60
2023-04-18T12:56:26.924Z,9.60
2023-04-18T12:58:56.366Z,9.57
2023-04-18T13:01:25.857Z,7.60
2023-04-18T13:04:08.340Z,8.15
2023-04-18T13:06:41.014Z,9.50
2023-04-18T13:09:11.087Z,9.30
2023-04-18T13:11:40.668Z,8.57
2023-04-18T13:14:10.098Z,10.27
2023-04-18T13:16:41.111Z,9.90
2023-04-18T13:19:12.964Z,8.60
2023-04-18T13:21:45.309Z,10.40
2023-04-18T13:24:15.061Z,10.00
2023-04-18T13:26:44.671Z,9.82
2023-04-18T13:29:14.232Z,9.55
2023-04-18T13:31:46.173Z,8.75
2023-04-18T13:34:15.694Z,9.25
2023-04-18T13:36:45.950Z,9.57
2023-04-18T13:39:16.282Z,10.10
2023-04-18T13:41:46.064Z,8.73
2023-04-18T13:44:15.450Z,10.85
2023-04-18T13:46:44.845Z,9.45
2023-04-18T13:49:14.483Z,9.75
2023-04-18T13:51:44.014Z,9.65
2023-04-18T13:54:15.452Z,9.38
2023-04-18T13:56:45.478Z,9.63
2023-04-18T13:59:15.019Z,9.68
2023-04-18T14:01:45.525Z,10.10
2023-04-18T14:04:15.231Z,10.32
2023-04-18T14:06:45.597Z,10.00
2023-04-18T14:09:16.548Z,9.00
2023-04-18T14:11:46.039Z,10.20
2023-04-18T14:14:15.430Z,10.40
2023-04-18T14:16:44.890Z,8.93
2023-04-18T14:19:14.583Z,9.32
2023-04-18T14:21:44.120Z,10.10
2023-04-18T14:24:13.573Z,10.60
2023-04-18T14:26:42.960Z,9.27
2023-04-18T14:29:12.640Z,9.63
2023-04-18T14:31:42.252Z,9.50
2023-04-18T14:34:11.915Z,9.68
2023-04-18T14:36:41.389Z,10.50
2023-04-18T14:39:11.204Z,9.00
2023-04-18T14:41:40.833Z,10.13
2023-04-18T14:44:10.290Z,9.20
2023-04-18T14:46:39.756Z,10.60
2023-04-18T14:49:09.187Z,9.48
2023-04-18T14:51:38.699Z,10.05
2023-04-18T14:54:08.100Z,10.25
2023-04-18T14:56:37.578Z,10.45
2023-04-18T14:59:07.008Z,8.88
2023-04-18T15:01:36.572Z,9.25
2023-04-18T15:06:55.283Z,10.07
2023-04-18T15:09:24.731Z,9.85
2023-04-18T15:11:58.394Z,8.55
2023-04-18T15:14:27.826Z,9.05
2023-04-18T15:16:57.471Z,9.00
2023-04-18T15:19:26.968Z,9.88
2023-04-18T15:21:56.345Z,10.57
2023-04-18T15:24:26.438Z,10.38
2023-04-18T15:26:55.911Z,9.48
2023-04-18T15:29:25.292Z,8.88
2023-04-18T15:31:54.862Z,8.55
2023-04-18T15:34:24.353Z,9.57
2023-04-18T15:36:54.002Z,9.98
2023-04-18T15:39:24.141Z,9.63
2023-04-18T15:41:57.243Z,10.00
2023-04-18T15:44:26.741Z,9.38
2023-04-18T15:46:56.150Z,9.85
2023-04-18T15:49:25.949Z,10.80
2023-04-18T15:51:56.907Z,11.02
2023-04-18T15:54:26.332Z,9.30
2023-04-18T15:56:55.768Z,10.15
2023-04-18T15:59:25.178Z,9.95
2023-04-18T16:01:54.677Z,9.93
2023-04-18T16:04:24.384Z,10.50
2023-04-18T16:06:54.203Z,9.73
2023-04-18T16:09:23.633Z,9.93
2023-04-18T16:11:53.070Z,10.52
2023-04-18T16:14:22.525Z,9.13
2023-04-18T16:16:53.844Z,9.52
2023-04-18T16:19:23.243Z,9.82
2023-04-18T16:21:52.664Z,9.82
2023-04-18T16:24:22.091Z,9.70
2023-04-18T16:26:52.304Z,8.77
2023-04-18T16:29:21.829Z,9.60
2023-04-18T16:31:51.717Z,9.43
2023-04-18T16:34:21.379Z,8.95
2023-04-18T16:36:51.301Z,9.77
2023-04-18T16:39:21.101Z,8.30
2023-04-18T16:41:51.354Z,9.68
2023-04-18T16:44:20.693Z,9.88
2023-04-18T16:46:50.202Z,8.85
2023-04-18T16:49:20.647Z,9.15
2023-04-18T16:51:50.113Z,9.50
2023-04-18T16:54:19.489Z,8.40
2023-04-18T16:56:48.927Z,8.57
2023-04-18T16:59:18.363Z,9.25
2023-04-18T17:01:47.782Z,8.85
2023-04-18T17:04:18.241Z,8.50
2023-04-18T17:06:48.129Z,8.70
2023-04-18T17:09:18.235Z,8.40
2023-04-18T17:11:47.760Z,10.23
2023-04-18T17:14:17.574Z,8.63
2023-04-18T17:16:47.180Z,8.38
2023-04-18T17:19:16.822Z,9.25
2023-04-18T17:21:46.549Z,8.85
2023-04-18T17:24:18.780Z,9.05
2023-04-18T17:26:48.217Z,9.07
2023-04-18T17:29:18.545Z,8.27
2023-04-18T17:31:48.143Z,7.88
2023-04-18T17:34:17.653Z,8.80
2023-04-18T17:36:47.056Z,8.55
2023-04-18T17:39:17.816Z,9.38
2023-04-18T17:41:47.849Z,8.70
2023-04-18T17:44:17.211Z,8.35
2023-04-18T17:46:48.200Z,9.02
2023-04-18T17:49:18.384Z,8.60
2023-04-18T17:51:47.809Z,8.43
2023-04-18T17:54:17.159Z,8.38
2023-04-18T17:56:46.538Z,9.40
2023-04-18T17:59:16.139Z,7.60
2023-04-18T18:01:45.605Z,7.90
2023-04-18T18:04:15.864Z,8.05
2023-04-18T18:06:45.317Z,8.77
2023-04-18T18:09:14.827Z,8.60
2023-04-18T18:11:44.336Z,8.02
2023-04-18T18:14:13.730Z,8.25
2023-04-18T18:16:43.155Z,8.60
2023-04-18T18:19:14.693Z,7.95
2023-04-18T18:21:44.295Z,8.88
2023-04-18T18:24:14.162Z,8.57
2023-04-18T18:26:46.015Z,8.77
2023-04-18T18:29:15.715Z,8.98
2023-04-18T18:31:45.454Z,9.77
2023-04-18T18:34:14.916Z,8.88
2023-04-18T18:36:44.336Z,8.18
2023-04-18T18:39:14.721Z,8.32
2023-04-18T18:41:44.279Z,9.23
2023-04-18T18:44:16.002Z,8.60
2023-04-18T18:46:45.614Z,8.65
2023-04-18T18:49:15.157Z,8.18
2023-04-18T18:51:44.769Z,8.23
2023-04-18T18:54:14.202Z,6.85
2023-04-18T18:56:45.548Z,8.02
2023-04-18T18:59:15.945Z,8.05
2023-04-18T19:01:45.780Z,8.52
2023-04-18T19:04:15.322Z,8.02
2023-04-18T19:06:44.861Z,7.68
2023-04-18T19:09:15.047Z,8.30
2023-04-18T19:11:44.674Z,7.25
2023-04-18T19:14:14.399Z,7.50
2023-04-18T19:16:46.147Z,7.93
2023-04-18T19:19:17.429Z,8.20
2023-04-18T19:21:47.509Z,8.57
2023-04-18T19:24:16.983Z,7.45
2023-04-18T19:26:46.529Z,7.50
2023-04-18T19:29:17.827Z,8.13
2023-04-18T19:31:47.278Z,8.18
2023-04-18T19:34:19.022Z,7.80
2023-04-18T19:36:48.453Z,7.82
2023-04-18T19:39:18.451Z,7.88
2023-04-18T19:41:47.890Z,7.18
2023-04-18T19:44:17.298Z,8.15
2023-04-18T19:46:46.691Z,7.88
2023-04-18T19:49:16.333Z,7.85
2023-04-18T19:51:45.918Z,8.35
2023-04-18T19:54:15.329Z,8.10
2023-04-18T19:56:44.717Z,7.60
2023-04-18T19:59:14.401Z,8.13
2023-04-18T20:01:43.973Z,8.25
2023-04-18T20:04:13.898Z,8.00
2023-04-18T20:06:43.744Z,7.93
2023-04-18T20:09:17.068Z,8.23
2023-04-18T20:11:46.754Z,8.65
2023-04-18T20:14:16.531Z,8.65
2023-04-18T20:16:46.788Z,8.05
2023-04-18T20:19:17.939Z,7.13
2023-04-18T20:21:47.820Z,8.38
2023-04-18T20:24:17.244Z,8.05
2023-04-18T20:26:46.742Z,8.13
2023-04-18T20:29:16.481Z,8.05
2023-04-18T20:31:46.228Z,7.68
2023-04-18T20:34:15.950Z,8.07
2023-04-18T20:36:45.334Z,7.50
2023-04-18T20:39:15.735Z,7.65
2023-04-18T20:41:47.467Z,7.05
2023-04-18T20:44:16.997Z,6.88
2023-04-18T20:46:46.612Z,8.05
2023-04-18T20:49:16.236Z,7.45
2023-04-18T20:51:45.933Z,7.18
2023-04-18T20:54:15.531Z,7.57
2023-04-18T20:56:45.097Z,7.35
2023-04-18T20:59:14.491Z,7.07
2023-04-18T21:01:44.004Z,7.95
2023-04-18T21:04:15.028Z,7.95
2023-04-18T21:06:44.711Z,7.43
2023-04-18T21:09:14.360Z,7.70
2023-04-18T21:11:43.963Z,6.75
2023-04-18T21:14:13.794Z,8.05
2023-04-18T21:16:43.745Z,8.05
2023-04-18T21:19:19.555Z,7.70
2023-04-18T21:21:48.972Z,7.40
2023-04-18T21:24:18.689Z,8.20
2023-04-18T21:26:48.074Z,7.60
2023-04-18T21:29:17.433Z,7.45
2023-04-18T21:31:49.084Z,7.40
2023-04-18T21:34:18.676Z,8.27
2023-04-18T21:36:48.040Z,7.90
2023-04-18T21:39:17.419Z,8.00
2023-04-18T21:41:47.150Z,7.95
2023-04-18T21:44:18.908Z,8.20
2023-04-18T21:46:48.571Z,7.80
2023-04-18T21:49:18.078Z,8.32
2023-04-18T21:51:49.050Z,8.38
2023-04-18T21:54:18.637Z,7.63
2023-04-18T21:56:48.035Z,8.27
2023-04-18T21:59:17.422Z,8.55
2023-04-18T22:01:46.811Z,8.15
2023-04-18T22:04:16.530Z,8.27
2023-04-18T22:06:46.253Z,8.32
2023-04-18T22:09:19.286Z,8.02
2023-04-18T22:11:48.749Z,7.97
2023-04-18T22:14:19.176Z,7.88
2023-04-18T22:16:50.203Z,8.25
2023-04-18T22:19:20.417Z,8.48
2023-04-18T22:21:49.773Z,8.18
2023-04-18T22:24:19.824Z,8.43
2023-04-18T22:26:49.268Z,7.57
2023-04-18T22:29:18.719Z,7.68
2023-04-18T22:31:48.148Z,8.95
2023-04-18T22:34:17.708Z,8.27
2023-04-18T22:36:47.243Z,8.23
2023-04-18T22:39:16.660Z,8.80
2023-04-18T22:41:46.182Z,8.65
2023-04-18T22:44:15.840Z,8.00
2023-04-18T22:46:46.001Z,8.23
2023-04-18T22:49:15.718Z,8.85
2023-04-18T22:51:46.609Z,8.75
2023-04-18T22:54:16.262Z,8.73
2023-04-18T22:56:45.863Z,8.23
2023-04-18T22:59:15.281Z,8.50
2023-04-18T23:01:44.805Z,9.07
2023-04-18T23:04:14.516Z,8.07
2023-04-18T23:06:44.473Z,8.88
2023-04-18T23:09:13.920Z,8.15
2023-04-18T23:11:43.501Z,9.80
2023-04-18T23:14:12.981Z,10.65
2023-04-18T23:16:43.902Z,8.98
2023-04-18T23:19:13.343Z,9.70
2023-04-18T23:21:42.757Z,8.70
2023-04-18T23:24:12.563Z,9.43
2023-04-18T23:26:43.076Z,8.05
2023-04-18T23:29:12.571Z,9.13
2023-04-18T23:31:42.026Z,8.90
2023-04-18T23:34:12.486Z,8.77
2023-04-18T23:36:42.525Z,8.10
2023-04-18T23:39:11.994Z,9.23
2023-04-18T23:41:41.489Z,8.43
2023-04-18T23:44:10.870Z,8.38
2023-04-18T23:46:40.287Z,8.77
2023-04-18T23:49:09.684Z,9.00
2023-04-18T23:51:39.079Z,8.35
2023-04-18T23:54:08.976Z,8.63
2023-04-18T23:56:38.641Z,8.30
2023-04-18T23:59:08.067Z,8.25
